Time;durP1;ratioP1;P1;durP2;ratioP2;P2;SDS_P1;SDS_P2;PMS_P1;PMS_P2;Temp;Humidity;BMP_temperature;BMP_pressure;BME280_temperature;BME280_humidity;BME280_pressure;Samples;Min_cycle;Max_cycle;Signal;HPM_P1;HPM_P2
2023/02/04 00:01:50;;;;;;;;;;;;;;;-3.63;96.01;101386.81;4939458;29;20389;-68
2023/02/04 00:04:16;;;;;;;;;;;;;;;-3.58;96.33;101397.91;4937342;29;19918;-68
2023/02/04 00:06:41;;;;;;;;;;;;;;;-3.57;96.62;101398.75;4937542;29;20252;-68
2023/02/04 00:09:07;;;;;;;;;;;;;;;-3.55;96.29;101400.41;4935644;29;20489;-67
2023/02/04 00:11:32;;;;;;;;;;;;;;;-3.49;96.86;101397.56;4935697;29;19910;-67
2023/02/04 00:13:57;;;;;;;;;;;;;;;-3.49;96.60;101404.50;4936676;29;19918;-69
2023/02/04 00:16:23;;;;;;;;;;;;;;;-3.63;96.39;101401.59;4936575;29;19918;-69
2023/02/04 00:18:48;;;;;;;;;;;;;;;-3.75;97.42;101410.72;4935276;29;19911;-67
2023/02/04 00:21:13;;;;;;;;;;;;;;;-3.73;97.49;101411.50;4936599;29;20379;-67
2023/02/04 00:23:40;;;;;;;;;;;;;;;-3.64;97.46;101412.91;4936189;29;19917;-68
2023/02/04 00:26:05;;;;;;;;;;;;;;;-3.67;97.84;101413.88;4936288;29;19910;-67
2023/02/04 00:28:30;;;;;;;;;;;;;;;-3.67;97.24;101408.66;4936159;29;20005;-67
2023/02/04 00:30:56;;;;;;;;;;;;;;;-3.61;97.28;101416.25;4936243;29;19922;-67
2023/02/04 00:33:22;;;;;;;;;;;;;;;-3.55;97.26;101416.00;4935803;29;19961;-67
2023/02/04 00:35:47;;;;;;;;;;;;;;;-3.50;97.60;101424.50;4936064;29;19910;-68
2023/02/04 00:38:12;;;;;;;;;;;;;;;-3.53;97.05;101422.00;4935120;29;19910;-67
2023/02/04 00:40:38;;;;;;;;;;;;;;;-3.59;97.62;101431.81;4935864;29;19970;-67
2023/02/04 00:43:03;;;;;;;;;;;;;;;-3.62;97.65;101437.13;4936105;29;19910;-67
2023/02/04 00:45:29;;;;;;;;;;;;;;;-3.66;97.88;101436.41;4936480;29;19918;-67
2023/02/04 00:47:54;;;;;;;;;;;;;;;-3.63;97.67;101451.06;4936425;29;20066;-67
2023/02/04 00:50:19;;;;;;;;;;;;;;;-3.63;97.80;101440.66;4935534;29;20318;-67
2023/02/04 00:52:45;;;;;;;;;;;;;;;-3.68;97.36;101448.63;4935551;29;19918;-66
2023/02/04 00:55:11;;;;;;;;;;;;;;;-3.72;98.18;101460.06;4935750;29;19911;-66
2023/02/04 00:57:36;;;;;;;;;;;;;;;-3.79;98.14;101456.78;4935743;29;20384;-67
2023/02/04 01:00:02;;;;;;;;;;;;;;;-3.81;99.05;101462.97;4935541;29;19945;-66
2023/02/04 01:02:29;;;;;;;;;;;;;;;-3.82;98.99;101461.25;4935428;29;19915;-68
2023/02/04 01:04:55;;;;;;;;;;;;;;;-3.75;98.67;101466.22;4935419;29;19915;-67
2023/02/04 01:07:20;;;;;;;;;;;;;;;-3.67;99.17;101465.94;4935345;29;19918;-67
2023/02/04 01:09:46;;;;;;;;;;;;;;;-3.57;99.06;101463.84;4935402;29;19911;-67
2023/02/04 01:12:11;;;;;;;;;;;;;;;-3.58;98.63;101475.16;4935243;29;19910;-67
2023/02/04 01:14:36;;;;;;;;;;;;;;;-3.61;98.39;101470.91;4935582;29;19914;-68
2023/02/04 01:17:01;;;;;;;;;;;;;;;-3.55;98.17;101469.84;4935389;29;19915;-66
2023/02/04 01:19:27;;;;;;;;;;;;;;;-3.52;97.97;101475.78;4935310;29;19939;-66
2023/02/04 01:21:52;;;;;;;;;;;;;;;-3.53;97.99;101478.44;4933869;29;19910;-68
2023/02/04 01:24:18;;;;;;;;;;;;;;;-3.58;98.38;101481.22;4948741;29;19926;-67
2023/02/04 01:26:43;;;;;;;;;;;;;;;-3.60;98.24;101483.03;4954430;29;19942;-67
2023/02/04 01:29:08;;;;;;;;;;;;;;;-3.64;98.75;101471.03;4953921;29;19911;-66
2023/02/04 01:31:34;;;;;;;;;;;;;;;-3.67;98.88;101486.75;4954582;29;19964;-69
2023/02/04 01:34:00;;;;;;;;;;;;;;;-3.67;98.53;101483.31;4954637;29;19914;-69
2023/02/04 01:36:25;;;;;;;;;;;;;;;-3.63;98.55;101488.34;4955472;29;19911;-69
2023/02/04 01:38:51;;;;;;;;;;;;;;;-3.60;98.67;101488.25;4954246;29;19910;-66
2023/02/04 01:41:17;;;;;;;;;;;;;;;-3.60;99.44;101493.44;4954706;29;19914;-67
2023/02/04 01:43:42;;;;;;;;;;;;;;;-3.60;98.52;101498.66;4954545;29;19911;-67
2023/02/04 01:46:08;;;;;;;;;;;;;;;-3.60;98.65;101500.41;4954233;29;20241;-67
2023/02/04 01:48:33;;;;;;;;;;;;;;;-3.62;99.13;101505.66;4954075;29;19972;-65
2023/02/04 01:51:02;;;;;;;;;;;;;;;-3.67;98.71;101497.19;4954893;29;19957;-65
2023/02/04 01:53:31;;;;;;;;;;;;;;;-3.64;99.31;101504.03;4955904;29;20318;-66
2023/02/04 01:56:22;;;;;;;;;;;;;;;-3.62;99.71;101510.88;4954435;29;19921;-65
2023/02/04 01:58:48;;;;;;;;;;;;;;;-3.60;99.13;101509.06;4954043;29;19914;-67
2023/02/04 02:01:34;;;;;;;;;;;;;;;-3.56;99.00;101521.06;4954139;29;19910;-67
2023/02/04 02:04:01;;;;;;;;;;;;;;;-3.55;98.81;101517.56;4954148;29;19914;-67
2023/02/04 02:06:26;;;;;;;;;;;;;;;-3.54;98.74;101521.84;4954062;29;19926;-66
2023/02/04 02:08:52;;;;;;;;;;;;;;;-3.53;98.83;101530.53;4953821;29;19910;-67
2023/02/04 02:11:17;;;;;;;;;;;;;;;-3.54;99.16;101534.03;4953888;29;19910;-66
2023/02/04 02:13:42;;;;;;;;;;;;;;;-3.49;99.00;101539.91;4953902;29;20357;-68
2023/02/04 02:16:08;;;;;;;;;;;;;;;-3.40;99.55;101541.38;4953852;29;20039;-68
2023/02/04 02:18:33;;;;;;;;;;;;;;;-3.39;99.00;101543.06;4953768;29;19910;-66
2023/02/04 02:21:02;;;;;;;;;;;;;;;-3.39;99.32;101537.88;4953654;29;19910;-65
2023/02/04 02:23:46;;;;;;;;;;;;;;;-3.34;98.99;101541.16;4953862;29;19914;-66
2023/02/04 02:26:12;;;;;;;;;;;;;;;-3.38;98.43;101555.19;4953855;29;20308;-68
2023/02/04 02:28:37;;;;;;;;;;;;;;;-3.46;98.46;101553.72;4953605;29;19965;-67
2023/02/04 02:31:03;;;;;;;;;;;;;;;-3.47;98.78;101567.63;4953643;29;19954;-68
2023/02/04 02:33:28;;;;;;;;;;;;;;;-3.49;98.80;101550.34;4936645;29;19911;-65
2023/02/04 02:35:53;;;;;;;;;;;;;;;-3.51;99.56;101566.03;4953851;29;19961;-66
2023/02/04 02:38:19;;;;;;;;;;;;;;;-3.49;100.00;101559.00;4953885;28;19911;-66
2023/02/04 02:40:44;;;;;;;;;;;;;;;-3.45;100.00;101558.00;4938847;29;19910;-65
2023/02/04 02:43:14;;;;;;;;;;;;;;;-3.40;99.56;101570.03;4957175;29;19917;-67
2023/02/04 02:45:39;;;;;;;;;;;;;;;-3.38;99.02;101573.41;4957573;29;20278;-67
2023/02/04 02:48:05;;;;;;;;;;;;;;;-3.39;98.85;101582.13;4958459;29;19910;-68
2023/02/04 02:50:31;;;;;;;;;;;;;;;-3.40;99.21;101581.28;4957220;29;19917;-66
2023/02/04 02:52:57;;;;;;;;;;;;;;;-3.40;99.38;101590.84;4956946;29;20009;-67
2023/02/04 02:55:24;;;;;;;;;;;;;;;-3.40;98.85;101590.84;4956940;29;19958;-67
2023/02/04 02:57:50;;;;;;;;;;;;;;;-3.36;99.13;101595.91;4957015;29;19910;-68
2023/02/04 03:00:17;;;;;;;;;;;;;;;-3.34;98.80;101599.28;4956736;29;20008;-68
2023/02/04 03:02:48;;;;;;;;;;;;;;;-3.32;98.62;101604.44;4956815;29;19921;-67
2023/02/04 03:05:14;;;;;;;;;;;;;;;-3.32;98.47;101607.06;4956822;29;19921;-65
2023/02/04 03:07:39;;;;;;;;;;;;;;;-3.34;98.28;101611.47;4939768;29;19910;-67
2023/02/04 03:10:05;;;;;;;;;;;;;;;-3.38;98.50;101618.53;4957113;29;19917;-68
2023/02/04 03:12:30;;;;;;;;;;;;;;;-3.35;98.49;101617.59;4956724;29;19910;-66
2023/02/04 03:14:55;;;;;;;;;;;;;;;-3.36;98.74;101621.94;4956718;29;20386;-67
2023/02/04 03:17:21;;;;;;;;;;;;;;;-3.34;98.44;101634.91;4956681;29;19917;-67
2023/02/04 03:19:47;;;;;;;;;;;;;;;-3.28;98.83;101634.69;4956689;29;19915;-67
2023/02/04 03:22:12;;;;;;;;;;;;;;;-3.28;98.17;101634.69;4956486;29;19928;-70
2023/02/04 03:24:38;;;;;;;;;;;;;;;-3.23;98.26;101641.44;4956501;29;19917;-69
2023/02/04 03:27:03;;;;;;;;;;;;;;;-3.19;98.25;101644.78;4956391;29;19910;-66
2023/02/04 03:29:29;;;;;;;;;;;;;;;-3.15;98.17;101652.47;4956408;29;20005;-67
2023/02/04 03:31:54;;;;;;;;;;;;;;;-3.16;97.40;101652.53;4956988;29;20426;-68
2023/02/04 03:34:20;;;;;;;;;;;;;;;-3.20;97.99;101650.91;4940168;29;19910;-68
2023/02/04 03:36:47;;;;;;;;;;;;;;;-3.26;97.87;101654.56;4956321;29;19918;-66
2023/02/04 03:39:12;;;;;;;;;;;;;;;-3.25;98.09;101660.63;4957071;29;20022;-68
2023/02/04 03:41:37;;;;;;;;;;;;;;;-3.22;98.57;101665.75;4957250;29;19957;-65
2023/02/04 03:44:03;;;;;;;;;;;;;;;-3.24;98.10;101667.53;4956208;29;19911;-67
2023/02/04 03:46:28;;;;;;;;;;;;;;;-3.19;98.78;101671.69;4956239;29;19910;-66
2023/02/04 03:48:53;;;;;;;;;;;;;;;-3.18;97.81;101678.63;4956582;29;19910;-67
2023/02/04 03:51:19;;;;;;;;;;;;;;;-3.19;97.92;101676.06;4955548;28;19954;-68
2023/02/04 03:53:44;;;;;;;;;;;;;;;-3.16;97.77;101686.41;4956064;29;19918;-67
2023/02/04 03:56:09;;;;;;;;;;;;;;;-3.18;97.92;101676.03;4955883;29;20028;-66
2023/02/04 03:58:35;;;;;;;;;;;;;;;-3.17;97.67;101680.34;4955606;29;20355;-68
2023/02/04 04:01:00;;;;;;;;;;;;;;;-3.20;98.37;101689.97;4956245;29;19969;-68
2023/02/04 04:03:25;;;;;;;;;;;;;;;-3.18;97.60;101696.88;4955615;29;19922;-65
2023/02/04 04:05:51;;;;;;;;;;;;;;;-3.20;97.80;101701.25;4955717;29;19941;-68
2023/02/04 04:08:16;;;;;;;;;;;;;;;-3.13;98.49;101700.16;4955655;29;19957;-67
2023/02/04 04:10:41;;;;;;;;;;;;;;;-3.09;97.92;101703.50;4955640;29;20381;-66
2023/02/04 04:13:06;;;;;;;;;;;;;;;-3.06;97.67;101719.03;4955358;29;19962;-65
2023/02/04 04:15:32;;;;;;;;;;;;;;;-2.99;97.67;101725.75;4938416;29;19918;-68
2023/02/04 04:17:57;;;;;;;;;;;;;;;-3.03;97.65;101723.28;4955709;29;20361;-67
2023/02/04 04:20:24;;;;;;;;;;;;;;;-2.96;98.40;101722.16;4955709;29;19914;-66
2023/02/04 04:22:50;;;;;;;;;;;;;;;-2.95;97.88;101732.53;4955623;29;20457;-66
2023/02/04 04:25:15;;;;;;;;;;;;;;;-2.96;97.50;101730.84;4956101;29;19957;-67
2023/02/04 04:27:40;;;;;;;;;;;;;;;-2.95;98.27;101737.75;4938966;29;19918;-67
2023/02/04 04:30:06;;;;;;;;;;;;;;;-2.90;98.28;101735.84;4938163;29;19921;-66
2023/02/04 04:32:31;;;;;;;;;;;;;;;-2.91;97.87;101736.75;4927011;29;20286;-67
2023/02/04 04:34:57;;;;;;;;;;;;;;;-2.93;97.32;101737.69;4917237;29;19911;-67
2023/02/04 04:37:22;;;;;;;;;;;;;;;-2.92;97.91;101748.06;4928110;29;20348;-67
2023/02/04 04:39:47;;;;;;;;;;;;;;;-2.92;97.65;101753.28;4936297;29;19910;-66
2023/02/04 04:42:13;;;;;;;;;;;;;;;-2.94;98.05;101755.09;4935734;29;20021;-64
2023/02/04 04:44:38;;;;;;;;;;;;;;;-2.96;98.16;101769.94;4926271;29;19911;-66
2023/02/04 04:47:03;;;;;;;;;;;;;;;-3.01;98.42;101768.41;4917341;29;19920;-64
2023/02/04 04:49:29;;;;;;;;;;;;;;;-2.99;98.17;101772.66;4916909;29;19911;-67
2023/02/04 04:51:54;;;;;;;;;;;;;;;-2.99;98.28;101775.25;4899935;29;20048;-67
2023/02/04 04:54:19;;;;;;;;;;;;;;;-2.95;98.32;101776.00;4917337;29;19911;-65
2023/02/04 04:56:44;;;;;;;;;;;;;;;-2.99;98.09;101783.06;4917376;29;19911;-68
2023/02/04 04:59:10;;;;;;;;;;;;;;;-2.99;98.34;101793.50;4917673;29;19911;-66
2023/02/04 05:01:35;;;;;;;;;;;;;;;-2.97;98.90;101791.69;4935777;29;19925;-67
2023/02/04 05:04:03;;;;;;;;;;;;;;;-2.95;98.27;101795.09;4935345;29;19918;-67
2023/02/04 05:06:28;;;;;;;;;;;;;;;-2.97;98.57;101794.28;4935383;29;19915;-67
2023/02/04 05:08:54;;;;;;;;;;;;;;;-3.00;98.77;101790.94;4935587;29;19910;-67
2023/02/04 05:11:19;;;;;;;;;;;;;;;-2.98;98.29;101795.19;4935423;29;19917;-67
2023/02/04 05:13:45;;;;;;;;;;;;;;;-2.93;98.45;101803.72;4935879;29;19946;-65
2023/02/04 05:16:14;;;;;;;;;;;;;;;-2.95;98.78;101810.72;4935974;29;19918;-66
2023/02/04 05:18:39;;;;;;;;;;;;;;;-2.95;98.80;101807.28;4935586;29;19910;-66
2023/02/04 05:21:05;;;;;;;;;;;;;;;-2.96;98.82;101816.84;4935957;29;20013;-70
2023/02/04 05:23:31;;;;;;;;;;;;;;;-2.99;98.76;101816.09;4935437;29;19911;-65
2023/02/04 05:25:56;;;;;;;;;;;;;;;-3.04;99.18;101821.47;4935368;29;19921;-70
2023/02/04 05:28:21;;;;;;;;;;;;;;;-2.97;98.84;101822.97;4935677;29;19954;-68
2023/02/04 05:30:46;;;;;;;;;;;;;;;-2.91;98.97;101824.50;4935342;29;20020;-66
2023/02/04 05:33:12;;;;;;;;;;;;;;;-2.86;99.29;101815.66;4935499;29;19911;-66
2023/02/04 05:35:37;;;;;;;;;;;;;;;-2.85;99.11;101825.19;4935738;29;19910;-67
2023/02/04 05:38:27;;;;;;;;;;;;;;;-2.91;99.40;101827.13;4935612;29;19945;-66
2023/02/04 05:40:53;;;;;;;;;;;;;;;-2.91;99.11;101835.78;4935362;29;20355;-67
2023/02/04 05:43:18;;;;;;;;;;;;;;;-2.84;99.58;101839.06;4935461;29;19911;-66
2023/02/04 05:45:43;;;;;;;;;;;;;;;-2.82;99.04;101835.50;4935107;29;19958;-67
2023/02/04 05:48:09;;;;;;;;;;;;;;;-2.82;99.71;101839.88;4935340;29;20432;-68
2023/02/04 05:50:34;;;;;;;;;;;;;;;-2.79;99.25;101836.31;4934827;29;20412;-70
2023/02/04 05:52:59;;;;;;;;;;;;;;;-2.79;99.44;101849.34;4918220;29;20363;-67
2023/02/04 05:55:25;;;;;;;;;;;;;;;-2.79;99.60;101846.72;4934923;29;20274;-68
2023/02/04 05:57:50;;;;;;;;;;;;;;;-2.82;98.81;101853.75;4934844;29;19958;-66
2023/02/04 06:00:15;;;;;;;;;;;;;;;-2.78;99.83;101858.88;4934861;29;20001;-66
2023/02/04 06:02:43;;;;;;;;;;;;;;;-2.78;99.80;101854.50;4934811;29;19922;-67
2023/02/04 06:05:09;;;;;;;;;;;;;;;-2.81;99.27;101857.22;4934616;29;20363;-68
2023/02/04 06:07:35;;;;;;;;;;;;;;;-2.82;99.13;101864.19;4934680;29;19940;-68
2023/02/04 06:10:00;;;;;;;;;;;;;;;-2.84;99.78;101868.59;4934941;29;20367;-65
2023/02/04 06:12:25;;;;;;;;;;;;;;;-2.80;99.53;101869.34;4935111;29;19910;-68
2023/02/04 06:14:51;;;;;;;;;;;;;;;-2.77;99.50;101877.06;4937810;29;19911;-66
2023/02/04 06:17:16;;;;;;;;;;;;;;;-2.82;99.23;101877.22;4921548;29;19915;-68
2023/02/04 06:19:41;;;;;;;;;;;;;;;-2.76;99.26;101883.13;4938682;29;20384;-65
2023/02/04 06:22:06;;;;;;;;;;;;;;;-2.81;99.73;101873.72;4938360;29;20383;-67
2023/02/04 06:24:32;;;;;;;;;;;;;;;-2.77;99.88;101887.50;4938544;29;20252;-68
2023/02/04 06:26:57;;;;;;;;;;;;;;;-2.75;99.68;101885.69;4938627;29;20005;-68
2023/02/04 06:29:22;;;;;;;;;;;;;;;-2.66;99.06;101900.16;4938463;29;20001;-66
2023/02/04 06:31:48;;;;;;;;;;;;;;;-2.64;98.62;101900.97;4937759;29;19911;-66
2023/02/04 06:34:13;;;;;;;;;;;;;;;-2.70;99.07;101904.63;4937941;29;20328;-68
2023/02/04 06:36:39;;;;;;;;;;;;;;;-2.72;98.49;101909.06;4941343;29;20259;-67
2023/02/04 06:39:04;;;;;;;;;;;;;;;-2.73;98.79;101909.09;4940701;29;19962;-69
2023/02/04 06:41:29;;;;;;;;;;;;;;;-2.67;98.98;101908.91;4941753;29;19910;-64
2023/02/04 06:43:55;;;;;;;;;;;;;;;-2.68;98.79;101913.25;4938246;29;19911;-66
2023/02/04 06:46:20;;;;;;;;;;;;;;;-2.69;99.36;101911.56;4937747;29;19922;-66
2023/02/04 06:48:45;;;;;;;;;;;;;;;-2.66;99.67;101921.03;4937808;29;19937;-68
2023/02/04 06:51:11;;;;;;;;;;;;;;;-2.64;99.22;101919.22;4920742;29;20240;-70
2023/02/04 06:53:36;;;;;;;;;;;;;;;-2.60;100.00;101926.06;4937723;29;19969;-71
2023/02/04 06:56:01;;;;;;;;;;;;;;;-2.53;99.45;101932.78;4921634;29;19918;-68
2023/02/04 06:58:27;;;;;;;;;;;;;;;-2.51;99.48;101933.59;4920659;29;19917;-67
2023/02/04 07:00:52;;;;;;;;;;;;;;;-2.50;99.49;101943.97;4938362;29;19933;-68
2023/02/04 07:03:17;;;;;;;;;;;;;;;-2.47;99.62;101948.22;4937497;29;19914;-67
2023/02/04 07:05:44;;;;;;;;;;;;;;;-2.45;99.19;101951.63;4938109;29;19962;-69
2023/02/04 07:08:09;;;;;;;;;;;;;;;-2.42;99.57;101956.75;4938903;29;20279;-67
2023/02/04 07:10:35;;;;;;;;;;;;;;;-2.35;99.52;101953.03;4937562;29;19911;-67
2023/02/04 07:13:00;;;;;;;;;;;;;;;-2.33;99.23;101956.44;4937379;29;20406;-66
2023/02/04 07:15:25;;;;;;;;;;;;;;;-2.29;99.59;101960.66;4937106;29;19911;-66
2023/02/04 07:17:51;;;;;;;;;;;;;;;-2.31;99.30;101965.09;4937226;29;20018;-68
2023/02/04 07:20:16;;;;;;;;;;;;;;;-2.22;99.93;101975.22;4937094;29;20009;-68
2023/02/04 07:22:42;;;;;;;;;;;;;;;-2.14;99.32;101972.34;4935405;29;19917;-69
2023/02/04 07:25:08;;;;;;;;;;;;;;;-2.10;98.51;101983.53;4935089;29;20427;-69
2023/02/04 07:27:34;;;;;;;;;;;;;;;-2.10;98.72;101978.31;4936333;29;19922;-70
2023/02/04 07:29:59;;;;;;;;;;;;;;;-2.14;98.86;101976.72;4937057;29;19911;-75
2023/02/04 07:32:26;;;;;;;;;;;;;;;-2.12;99.11;101982.72;4937359;29;19914;-69
2023/02/04 07:34:52;;;;;;;;;;;;;;;-2.05;99.12;101989.44;4937388;29;20319;-71
2023/02/04 07:37:19;;;;;;;;;;;;;;;-2.04;98.71;101984.16;4937967;29;19911;-73
2023/02/04 07:39:45;;;;;;;;;;;;;;;-2.00;98.58;101995.38;4937762;29;19926;-71
2023/02/04 07:42:10;;;;;;;;;;;;;;;-2.04;98.51;101994.59;4937336;29;20367;-74
2023/02/04 07:44:36;;;;;;;;;;;;;;;-2.06;99.14;101995.56;4937681;29;19911;-73
2023/02/04 07:47:02;;;;;;;;;;;;;;;-2.04;98.83;102001.59;4937768;29;19918;-71
2023/02/04 07:49:27;;;;;;;;;;;;;;;-2.06;99.05;101998.16;4937180;29;19911;-73
2023/02/04 07:51:53;;;;;;;;;;;;;;;-2.09;99.39;102000.88;4937089;29;19911;-71
2023/02/04 07:54:18;;;;;;;;;;;;;;;-2.06;99.61;102008.63;4936958;29;19918;-70
2023/02/04 07:56:43;;;;;;;;;;;;;;;-2.04;99.00;102006.81;4936519;29;19957;-67
2023/02/04 07:59:09;;;;;;;;;;;;;;;-2.08;99.54;102018.25;4936683;29;19911;-67
2023/02/04 08:01:34;;;;;;;;;;;;;;;-2.11;99.32;102018.34;4936462;29;19914;-68
2023/02/04 08:04:00;;;;;;;;;;;;;;;-2.09;99.06;102019.16;4919297;29;19918;-70
2023/02/04 08:06:25;;;;;;;;;;;;;;;-2.14;100.00;102018.47;4936917;29;19962;-70
2023/02/04 08:08:50;;;;;;;;;;;;;;;-2.08;99.68;102028.69;4920199;29;20319;-70
2023/02/04 08:11:16;;;;;;;;;;;;;;;-2.05;100.00;102033.81;4938219;29;20275;-74
2023/02/04 08:13:44;;;;;;;;;;;;;;;-1.95;99.71;102030.00;4920183;29;20346;-72
2023/02/04 08:16:09;;;;;;;;;;;;;;;-1.89;100.00;102033.25;4936473;29;20351;-71
2023/02/04 08:18:34;;;;;;;;;;;;;;;-1.81;99.79;102038.22;4936073;29;19917;-71
2023/02/04 08:21:01;;;;;;;;;;;;;;;-1.76;99.46;102046.75;4936525;29;19911;-71
2023/02/04 08:23:26;;;;;;;;;;;;;;;-1.77;99.18;102055.47;4937045;29;20372;-72
2023/02/04 08:25:51;;;;;;;;;;;;;;;-1.83;99.84;102054.84;4935992;29;20013;-70
2023/02/04 08:28:17;;;;;;;;;;;;;;;-1.84;99.96;102056.59;4935824;29;19919;-72
2023/02/04 08:30:42;;;;;;;;;;;;;;;-1.81;99.62;102059.09;4936324;29;19934;-69
2023/02/04 08:33:07;;;;;;;;;;;;;;;-1.73;99.48;102061.47;4935864;29;19918;-70
2023/02/04 08:35:33;;;;;;;;;;;;;;;-1.72;99.76;102065.78;4937134;29;19923;-73
2023/02/04 08:38:04;;;;;;;;;;;;;;;-1.70;100.00;102063.97;4937898;29;20367;-70
2023/02/04 08:40:30;;;;;;;;;;;;;;;-1.64;100.00;102074.22;4936305;29;19915;-69
2023/02/04 08:42:55;;;;;;;;;;;;;;;-1.60;99.79;102081.03;4936679;29;19935;-69
2023/02/04 08:45:21;;;;;;;;;;;;;;;-1.63;99.54;102089.84;4939162;29;19911;-70
2023/02/04 08:47:46;;;;;;;;;;;;;;;-1.74;100.00;102091.94;4938578;29;19953;-71
2023/02/04 08:50:17;;;;;;;;;;;;;;;-1.81;100.00;102100.88;4939217;29;19984;-72
2023/02/04 08:52:52;;;;;;;;;;;;;;;-1.80;100.00;102097.38;4914361;29;20402;-71
2023/02/04 08:55:26;;;;;;;;;;;;;;;-1.77;100.00;102110.31;4937153;29;19950;-69
2023/02/04 08:57:58;;;;;;;;;;;;;;;-1.76;100.00;102117.25;4937886;29;19911;-72
2023/02/04 09:00:42;;;;;;;;;;;;;;;-1.76;99.84;102114.63;4936511;29;19978;-71
2023/02/04 09:03:11;;;;;;;;;;;;;;;-1.75;99.79;102115.50;4941893;29;20017;-69
2023/02/04 09:05:37;;;;;;;;;;;;;;;-1.74;99.53;102120.66;4934187;29;19940;-69
2023/02/04 09:08:02;;;;;;;;;;;;;;;-1.72;100.00;102124.09;4918057;29;19917;-69
2023/02/04 09:10:27;;;;;;;;;;;;;;;-1.70;99.61;102126.66;4934873;29;19910;-69
2023/02/04 09:12:54;;;;;;;;;;;;;;;-1.67;99.77;102131.78;4934711;29;19973;-72
2023/02/04 09:15:21;;;;;;;;;;;;;;;-1.61;100.00;102137.66;4932456;29;19984;-70
2023/02/04 09:17:46;;;;;;;;;;;;;;;-1.57;99.65;102136.66;4936696;29;19938;-73
2023/02/04 09:20:12;;;;;;;;;;;;;;;-1.56;99.39;102148.81;4935787;29;19950;-71
2023/02/04 09:22:37;;;;;;;;;;;;;;;-1.58;99.34;102140.16;4917896;29;19988;-70
2023/02/04 09:25:03;;;;;;;;;;;;;;;-1.49;99.75;102148.59;4902324;29;20349;-70
2023/02/04 09:27:28;;;;;;;;;;;;;;;-1.51;99.88;102147.78;4935259;29;19916;-69
2023/02/04 09:29:53;;;;;;;;;;;;;;;-1.52;99.42;102154.78;4935490;29;19946;-71
2023/02/04 09:32:19;;;;;;;;;;;;;;;-1.51;99.38;102151.25;4925995;29;19965;-70
2023/02/04 09:34:44;;;;;;;;;;;;;;;-1.52;99.14;102157.38;4918081;29;19917;-70
2023/02/04 09:37:09;;;;;;;;;;;;;;;-1.44;99.16;102162.38;4922868;29;20014;-71
2023/02/04 09:39:34;;;;;;;;;;;;;;;-1.39;98.65;102170.91;4927405;29;19903;-72
2023/02/04 09:42:00;;;;;;;;;;;;;;;-1.35;99.06;102165.53;4912800;29;19953;-72
2023/02/04 09:44:27;;;;;;;;;;;;;;;-1.31;98.57;102168.88;4902839;29;19966;-71
2023/02/04 09:46:54;;;;;;;;;;;;;;;-1.33;98.56;102178.53;4902849;29;20256;-69
2023/02/04 09:49:19;;;;;;;;;;;;;;;-1.33;99.06;102186.38;4921774;29;19970;-74
2023/02/04 09:51:45;;;;;;;;;;;;;;;-1.45;98.47;102186.75;4907381;29;19966;-73
2023/02/04 09:54:12;;;;;;;;;;;;;;;-1.49;99.01;102187.78;4905509;29;19918;-73
2023/02/04 09:56:38;;;;;;;;;;;;;;;-1.61;98.88;102187.28;4905243;29;19918;-73
2023/02/04 09:59:09;;;;;;;;;;;;;;;-1.60;99.00;102189.00;4931283;29;19910;-71
2023/02/04 10:01:35;;;;;;;;;;;;;;;-1.50;98.77;102196.53;4941616;29;19914;-70
2023/02/04 10:04:01;;;;;;;;;;;;;;;-1.45;98.60;102203.31;4941558;29;20006;-71
2023/02/04 10:06:26;;;;;;;;;;;;;;;-1.50;97.18;102196.53;4940856;29;19954;-70
2023/02/04 10:08:53;;;;;;;;;;;;;;;-1.50;98.35;102191.28;4941305;29;19918;-71
2023/02/04 10:11:19;;;;;;;;;;;;;;;-1.46;98.09;102203.34;4940834;29;20001;-73
2023/02/04 10:13:46;;;;;;;;;;;;;;;-1.40;97.75;102211.00;4940769;29;20271;-71
2023/02/04 10:16:13;;;;;;;;;;;;;;;-1.44;97.58;102222.47;4923747;29;20046;-71
2023/02/04 10:18:39;;;;;;;;;;;;;;;-1.41;97.89;102214.53;4940878;29;20009;-70
2023/02/04 10:21:17;;;;;;;;;;;;;;;-1.42;97.84;102212.81;4941138;29;20001;-69
2023/02/04 10:23:45;;;;;;;;;;;;;;;-1.39;97.19;102213.56;4940730;29;19915;-73
2023/02/04 10:26:11;;;;;;;;;;;;;;;-1.43;97.29;102226.78;4941146;29;19915;-69
2023/02/04 10:28:37;;;;;;;;;;;;;;;-1.41;97.72;102225.84;4941194;29;20421;-70
2023/02/04 10:31:02;;;;;;;;;;;;;;;-1.44;97.07;102231.16;4940695;29;19911;-69
2023/02/04 10:33:32;;;;;;;;;;;;;;;-1.41;97.62;102240.66;4940130;29;19918;-69
2023/02/04 10:35:57;;;;;;;;;;;;;;;-1.52;96.53;102242.75;4940617;29;19914;-73
2023/02/04 10:38:23;;;;;;;;;;;;;;;-1.54;97.46;102240.19;4940811;29;19911;-71
2023/02/04 10:40:58;;;;;;;;;;;;;;;-1.47;97.80;102246.91;4940062;29;19917;-74
2023/02/04 10:43:24;;;;;;;;;;;;;;;-1.40;96.78;102252.81;4932733;29;20021;-71
2023/02/04 10:46:02;;;;;;;;;;;;;;;-1.47;97.66;102256.50;4909304;29;19946;-70
2023/02/04 10:48:29;;;;;;;;;;;;;;;-1.36;98.75;102262.28;4930816;29;19910;-71
2023/02/04 10:50:55;;;;;;;;;;;;;;;-1.29;97.77;102255.94;4940664;29;19938;-74
2023/02/04 10:56:14;;;;;;;;;;;;;;;-1.53;98.53;102262.78;4940736;29;19910;-72
2023/02/04 10:58:40;;;;;;;;;;;;;;;-1.65;99.30;102268.41;4940800;29;19911;-72
2023/02/04 11:01:08;;;;;;;;;;;;;;;-1.61;99.66;102276.09;4920277;29;19933;-71
2023/02/04 11:03:36;;;;;;;;;;;;;;;-1.48;100.00;102283.56;4904757;29;19922;-69
2023/02/04 11:06:23;;;;;;;;;;;;;;;-1.43;98.87;102286.91;4937615;29;19981;-70
2023/02/04 11:08:50;;;;;;;;;;;;;;;-1.44;97.60;102285.19;4935386;29;19939;-70
2023/02/04 11:11:20;;;;;;;;;;;;;;;-1.39;97.66;102291.13;4937445;29;20283;-70
2023/02/04 11:13:48;;;;;;;;;;;;;;;-1.38;98.17;102300.66;4926652;29;19918;-69
2023/02/04 11:16:16;;;;;;;;;;;;;;;-1.31;97.72;102294.34;4915517;29;20393;-70
2023/02/04 11:18:43;;;;;;;;;;;;;;;-1.30;97.38;102303.88;4936500;29;19918;-70
2023/02/04 11:21:13;;;;;;;;;;;;;;;-1.32;97.56;102313.53;4937650;29;19911;-70
2023/02/04 11:23:39;;;;;;;;;;;;;;;-1.37;97.46;102320.66;4938905;29;19914;-68
2023/02/04 11:26:06;;;;;;;;;;;;;;;-1.34;97.10;102321.44;4937444;29;19910;-71
2023/02/04 11:28:38;;;;;;;;;;;;;;;-1.33;96.55;102327.50;4937105;29;20005;-71
2023/02/04 11:31:12;;;;;;;;;;;;;;;-1.34;96.49;102326.66;4937374;29;19965;-71
2023/02/04 11:33:40;;;;;;;;;;;;;;;-1.45;96.53;102307.81;4920024;29;19914;-68
2023/02/04 11:36:08;;;;;;;;;;;;;;;-1.36;96.75;102335.44;4937979;29;19950;-71
2023/02/04 11:38:33;;;;;;;;;;;;;;;-1.34;96.07;102336.25;4937897;29;19965;-72
2023/02/04 11:40:59;;;;;;;;;;;;;;;-1.40;95.61;102346.91;4936867;29;19911;-69
2023/02/04 11:43:32;;;;;;;;;;;;;;;-1.44;95.38;102340.91;4904709;29;19970;-70
2023/02/04 11:46:09;;;;;;;;;;;;;;;-1.51;96.14;102348.97;4936804;29;19950;-71
2023/02/04 11:48:34;;;;;;;;;;;;;;;-1.58;96.35;102348.31;4936726;29;20311;-70
2023/02/04 11:51:01;;;;;;;;;;;;;;;-1.62;96.14;102342.31;4936838;29;19966;-69
2023/02/04 11:53:30;;;;;;;;;;;;;;;-1.56;96.62;102356.94;4936582;29;19914;-70
2023/02/04 11:55:55;;;;;;;;;;;;;;;-1.53;97.09;102356.00;4903798;29;19911;-71
2023/02/04 11:58:24;;;;;;;;;;;;;;;-1.48;96.35;102364.56;4936613;29;19911;-73
2023/02/04 12:00:50;;;;;;;;;;;;;;;-1.48;96.27;102378.47;4919758;29;19911;-76
2023/02/04 12:03:25;;;;;;;;;;;;;;;-1.49;96.47;102376.75;4936476;29;19922;-70
2023/02/04 12:05:53;;;;;;;;;;;;;;;-1.51;96.44;102380.31;4936511;29;19914;-69
2023/02/04 12:08:21;;;;;;;;;;;;;;;-1.59;97.12;102384.03;4936600;29;19911;-69
2023/02/04 12:10:49;;;;;;;;;;;;;;;-1.60;97.71;102391.91;4937187;29;19981;-69
2023/02/04 12:13:21;;;;;;;;;;;;;;;-1.58;97.43;102388.34;4939130;29;19918;-70
2023/02/04 12:16:12;;;;;;;;;;;;;;;-1.53;97.71;102403.88;4936203;29;20049;-69
2023/02/04 12:18:38;;;;;;;;;;;;;;;-1.49;97.28;102400.28;4933575;29;19910;-70
2023/02/04 12:21:03;;;;;;;;;;;;;;;-1.48;97.28;102409.81;4936482;29;20351;-71
2023/02/04 12:23:29;;;;;;;;;;;;;;;-1.45;97.72;102411.50;4919192;29;19911;-69
2023/02/04 12:25:55;;;;;;;;;;;;;;;-1.40;97.76;102414.84;4936261;29;19910;-70
2023/02/04 12:28:20;;;;;;;;;;;;;;;-1.47;98.00;102416.75;4934246;29;19917;-70
2023/02/04 12:30:46;;;;;;;;;;;;;;;-1.51;98.36;102411.69;4917104;29;19958;-69
2023/02/04 12:33:11;;;;;;;;;;;;;;;-1.47;99.02;102419.38;4931962;29;19918;-70
2023/02/04 12:35:37;;;;;;;;;;;;;;;-1.52;98.48;102429.13;4940860;29;19962;-70